createdAt,value
2023-01-22T00:01:04.797Z,15.13
2023-01-22T00:03:52.401Z,20.97
2023-01-22T00:06:38.639Z,23.87
2023-01-22T00:09:25.309Z,21.30
2023-01-22T00:12:11.517Z,15.77
2023-01-22T00:14:58.041Z,50.37
2023-01-22T00:17:44.609Z,36.50
2023-01-22T00:20:31.130Z,30.77
2023-01-22T00:23:18.017Z,56.77
2023-01-22T00:26:13.287Z,18.23
2023-01-22T00:29:00.757Z,20.07
2023-01-22T00:31:48.243Z,17.10
2023-01-22T00:34:34.919Z,12.13
2023-01-22T00:37:21.541Z,15.00
2023-01-22T00:40:08.891Z,14.43
2023-01-22T00:42:55.091Z,17.83
2023-01-22T00:45:41.639Z,14.97
2023-01-22T00:48:28.249Z,12.67
2023-01-22T00:51:15.643Z,12.57
2023-01-22T00:54:02.177Z,12.60
2023-01-22T00:56:48.531Z,13.63
2023-01-22T00:59:35.301Z,14.23
2023-01-22T01:02:21.957Z,13.50
2023-01-22T01:05:08.664Z,13.30
2023-01-22T01:07:55.085Z,12.50
2023-01-22T01:10:41.515Z,12.60
2023-01-22T01:13:28.793Z,10.70
2023-01-22T01:16:18.487Z,12.57
2023-01-22T01:19:08.006Z,14.20
2023-01-22T01:21:54.233Z,10.43
2023-01-22T01:24:40.549Z,13.83
2023-01-22T01:27:31.505Z,13.10
2023-01-22T01:30:18.193Z,11.30
2023-01-22T01:33:05.481Z,9.93
2023-01-22T01:35:59.738Z,10.13
2023-01-22T01:38:46.586Z,12.23
2023-01-22T01:41:33.331Z,10.47
2023-01-22T01:44:22.433Z,9.97
2023-01-22T01:47:35.730Z,11.70
2023-01-22T01:50:25.272Z,15.30
2023-01-22T01:53:11.771Z,13.50
2023-01-22T01:56:00.133Z,10.40
2023-01-22T01:58:47.308Z,13.57
2023-01-22T02:01:33.995Z,13.33
2023-01-22T02:04:21.415Z,12.83
2023-01-22T02:07:08.028Z,12.23
2023-01-22T02:09:54.826Z,14.43
2023-01-22T02:12:41.226Z,11.43
2023-01-22T02:15:28.107Z,11.93
2023-01-22T02:18:14.406Z,11.67
2023-01-22T02:21:01.269Z,12.13
2023-01-22T02:23:48.122Z,10.77
2023-01-22T02:26:35.817Z,10.50
2023-01-22T02:29:22.954Z,14.07
2023-01-22T02:32:09.430Z,11.00
2023-01-22T02:34:57.332Z,12.90
2023-01-22T02:37:46.162Z,14.20
2023-01-22T02:40:33.759Z,12.60
2023-01-22T02:43:20.332Z,11.87
2023-01-22T02:46:06.927Z,16.17
2023-01-22T02:48:53.710Z,14.70
2023-01-22T02:51:40.292Z,12.63
2023-01-22T02:54:26.940Z,14.73
2023-01-22T02:57:13.479Z,11.87
2023-01-22T03:00:00.317Z,17.77
2023-01-22T03:02:46.867Z,13.53
2023-01-22T03:05:34.604Z,12.23
2023-01-22T03:08:26.657Z,13.97
2023-01-22T03:11:13.414Z,12.93
2023-01-22T03:14:20.782Z,14.90
2023-01-22T03:17:26.732Z,14.40
2023-01-22T03:20:31.889Z,15.70
2023-01-22T03:23:18.231Z,16.17
2023-01-22T03:26:05.599Z,14.43
2023-01-22T03:28:53.160Z,15.30
2023-01-22T03:31:40.489Z,19.33
2023-01-22T03:34:27.170Z,15.47
2023-01-22T03:37:16.515Z,13.27
2023-01-22T03:40:05.877Z,16.90
2023-01-22T03:42:58.024Z,13.07
2023-01-22T03:45:44.456Z,15.93
2023-01-22T03:48:34.417Z,18.47
2023-01-22T03:51:22.517Z,17.77
2023-01-22T03:54:12.942Z,16.87
2023-01-22T03:56:59.553Z,16.07
2023-01-22T03:59:50.739Z,15.33
2023-01-22T04:02:37.874Z,17.03
2023-01-22T04:05:33.746Z,17.07
2023-01-22T04:08:21.112Z,17.47
2023-01-22T04:11:09.372Z,17.73
2023-01-22T04:13:56.967Z,16.13
2023-01-22T04:16:46.526Z,17.33
2023-01-22T04:19:51.416Z,16.07
2023-01-22T04:22:55.836Z,17.90
2023-01-22T04:25:43.460Z,14.77
2023-01-22T04:28:29.814Z,17.27
2023-01-22T04:31:17.946Z,17.83
2023-01-22T04:34:27.332Z,18.30
2023-01-22T04:37:20.226Z,19.37
2023-01-22T04:40:07.473Z,19.57
2023-01-22T04:42:55.865Z,20.77
2023-01-22T04:45:43.173Z,15.50
2023-01-22T04:48:29.815Z,19.57
2023-01-22T04:51:16.087Z,20.80
2023-01-22T04:54:05.659Z,20.07
2023-01-22T04:56:52.783Z,20.33
2023-01-22T04:59:39.895Z,18.57
2023-01-22T05:02:26.295Z,24.57
2023-01-22T05:05:13.835Z,20.57
2023-01-22T05:08:00.681Z,20.27
2023-01-22T05:10:48.462Z,19.17
2023-01-22T05:13:46.761Z,21.77
2023-01-22T05:16:33.335Z,20.00
2023-01-22T05:19:19.738Z,35.07
2023-01-22T05:22:06.419Z,22.67
2023-01-22T05:24:53.014Z,22.00
2023-01-22T05:27:39.891Z,18.47
2023-01-22T05:30:32.512Z,21.83
2023-01-22T05:33:31.863Z,18.77
2023-01-22T05:36:18.254Z,20.73
2023-01-22T05:39:04.898Z,19.57
2023-01-22T05:41:52.315Z,28.67
2023-01-22T05:44:38.988Z,28.73
2023-01-22T05:47:25.401Z,39.00
2023-01-22T05:50:33.152Z,26.53
2023-01-22T05:53:26.777Z,19.43
2023-01-22T05:56:13.605Z,38.80
2023-01-22T05:59:00.343Z,33.97
2023-01-22T06:01:47.029Z,22.80
2023-01-22T06:04:33.892Z,20.73
2023-01-22T06:07:23.788Z,22.63
2023-01-22T06:10:10.559Z,20.13
2023-01-22T06:13:03.112Z,19.47
2023-01-22T06:15:49.810Z,19.47
2023-01-22T06:18:53.192Z,21.97
2023-01-22T06:21:40.381Z,26.27
2023-01-22T06:24:28.171Z,21.07
2023-01-22T06:27:14.797Z,19.13
2023-01-22T06:30:11.472Z,20.17
2023-01-22T06:32:57.794Z,22.90
2023-01-22T06:35:44.357Z,21.73
2023-01-22T06:38:32.093Z,24.63
2023-01-22T06:41:21.230Z,21.30
2023-01-22T06:44:14.613Z,18.90
2023-01-22T06:47:01.689Z,17.93
2023-01-22T06:49:49.945Z,21.20
2023-01-22T06:52:36.587Z,17.57
2023-01-22T06:55:23.226Z,20.57
2023-01-22T06:58:09.686Z,19.03
2023-01-22T07:01:00.517Z,16.30
2023-01-22T07:03:46.909Z,17.60
2023-01-22T07:06:33.590Z,16.30
2023-01-22T07:09:19.938Z,19.07
2023-01-22T07:12:06.427Z,23.40
2023-01-22T07:14:52.705Z,15.90
2023-01-22T07:17:39.123Z,18.97
2023-01-22T07:20:25.756Z,18.20
2023-01-22T07:23:11.909Z,20.10
2023-01-22T07:25:58.673Z,17.57
2023-01-22T07:28:45.814Z,16.60
2023-01-22T07:31:32.329Z,19.97
2023-01-22T07:34:18.785Z,43.30
2023-01-22T07:37:05.069Z,31.13
2023-01-22T07:39:51.748Z,42.10
2023-01-22T07:42:38.838Z,34.20
2023-01-22T07:45:26.218Z,25.73
2023-01-22T07:48:12.689Z,21.93
2023-01-22T07:51:05.386Z,22.50
2023-01-22T07:53:51.758Z,19.90
2023-01-22T07:56:38.053Z,25.77
2023-01-22T07:59:24.240Z,18.50
2023-01-22T08:02:13.094Z,20.93
2023-01-22T08:04:59.287Z,19.10
2023-01-22T08:07:45.699Z,21.13
2023-01-22T08:10:32.188Z,20.73
2023-01-22T08:13:18.879Z,18.23
2023-01-22T08:16:05.520Z,22.00
2023-01-22T08:18:51.934Z,20.27
2023-01-22T08:21:38.390Z,19.43
2023-01-22T08:24:25.291Z,19.57
2023-01-22T08:27:11.607Z,23.43
2023-01-22T08:29:58.051Z,18.37
2023-01-22T08:32:45.917Z,17.30
2023-01-22T08:35:32.469Z,19.80
2023-01-22T08:38:19.148Z,19.60
2023-01-22T08:41:05.471Z,17.37
2023-01-22T08:43:53.251Z,18.10
2023-01-22T08:46:42.697Z,14.73
2023-01-22T08:49:30.969Z,20.40
2023-01-22T08:52:17.601Z,19.30
2023-01-22T08:55:06.727Z,19.67
2023-01-22T08:57:56.907Z,19.07
2023-01-22T09:00:44.620Z,19.37
2023-01-22T09:03:31.036Z,18.23
2023-01-22T09:06:17.325Z,15.60
2023-01-22T09:09:04.314Z,21.07
2023-01-22T09:11:50.608Z,18.57
2023-01-22T09:14:36.940Z,19.73
2023-01-22T09:17:23.234Z,22.80
2023-01-22T09:20:10.177Z,17.80
2023-01-22T09:22:56.742Z,15.07
2023-01-22T09:25:43.484Z,18.27
2023-01-22T09:28:29.923Z,16.90
2023-01-22T09:31:20.620Z,14.43
2023-01-22T09:34:07.038Z,13.90
2023-01-22T09:36:53.499Z,17.17
2023-01-22T09:39:39.650Z,14.83
2023-01-22T09:42:31.259Z,17.67
2023-01-22T09:45:21.220Z,22.57
2023-01-22T09:48:17.693Z,16.80
2023-01-22T09:51:05.212Z,16.03
2023-01-22T09:53:58.401Z,12.13
2023-01-22T09:56:47.322Z,17.00
2023-01-22T09:59:48.418Z,15.53
2023-01-22T10:02:44.811Z,17.27
2023-01-22T10:05:33.970Z,15.83
2023-01-22T10:08:23.411Z,16.77
2023-01-22T10:11:10.299Z,17.70
2023-01-22T10:14:00.594Z,15.07
2023-01-22T10:16:47.363Z,12.30
2023-01-22T10:19:42.325Z,15.23
2023-01-22T10:22:28.755Z,27.03
2023-01-22T10:25:16.762Z,24.70
2023-01-22T10:28:04.277Z,17.87
2023-01-22T10:30:53.089Z,14.87
2023-01-22T10:33:44.389Z,13.43
2023-01-22T10:36:32.033Z,14.53
2023-01-22T10:39:19.651Z,14.67
2023-01-22T10:42:06.288Z,12.87
2023-01-22T10:45:19.389Z,10.53
2023-01-22T10:48:12.285Z,15.43
2023-01-22T10:51:03.622Z,8.30
2023-01-22T10:53:59.963Z,8.93
2023-01-22T10:56:47.325Z,9.30
2023-01-22T10:59:34.376Z,12.57
2023-01-22T11:02:24.541Z,10.87
2023-01-22T11:05:24.405Z,10.10
2023-01-22T11:08:21.244Z,7.13
2023-01-22T11:11:10.841Z,9.87
2023-01-22T11:14:27.406Z,9.80
2023-01-22T11:17:23.088Z,9.13
2023-01-22T11:20:30.663Z,7.00
2023-01-22T11:23:26.459Z,9.23
2023-01-22T11:26:29.928Z,9.93
2023-01-22T11:29:32.202Z,8.97
2023-01-22T11:32:47.631Z,9.97
2023-01-22T11:35:52.738Z,6.63
2023-01-22T11:38:51.244Z,6.77
2023-01-22T11:42:10.107Z,7.83
2023-01-22T11:45:31.247Z,6.03
2023-01-22T11:48:54.761Z,6.37
2023-01-22T11:51:53.078Z,5.83
2023-01-22T11:55:22.310Z,5.90
2023-01-22T11:58:29.174Z,6.77
2023-01-22T12:01:31.594Z,5.40
2023-01-22T12:04:49.353Z,6.90
2023-01-22T12:07:53.774Z,6.83
2023-01-22T12:11:00.671Z,7.07
2023-01-22T12:14:10.619Z,4.77
2023-01-22T12:17:00.044Z,6.13
2023-01-22T12:20:08.370Z,6.23
2023-01-22T12:23:13.762Z,4.73
2023-01-22T12:26:06.817Z,6.00
2023-01-22T12:29:16.443Z,4.33
2023-01-22T12:32:08.922Z,5.73
2023-01-22T12:35:09.024Z,6.07
2023-01-22T12:38:15.053Z,5.63
2023-01-22T12:41:16.517Z,3.60
2023-01-22T12:44:19.425Z,5.93
2023-01-22T12:47:31.800Z,3.63
2023-01-22T12:50:21.170Z,6.87
2023-01-22T12:53:33.159Z,7.07
2023-01-22T12:56:32.997Z,5.00
2023-01-22T12:59:40.447Z,5.73
2023-01-22T13:02:26.881Z,5.10
2023-01-22T13:05:25.712Z,6.77
2023-01-22T13:08:15.558Z,5.93
2023-01-22T13:11:05.366Z,5.33
2023-01-22T13:14:18.274Z,5.47
2023-01-22T13:17:27.414Z,4.93
2023-01-22T13:20:17.522Z,6.50
2023-01-22T13:23:07.231Z,5.70
2023-01-22T13:25:58.214Z,4.53
2023-01-22T13:28:52.134Z,7.00
2023-01-22T13:31:38.598Z,5.40
2023-01-22T13:34:26.823Z,4.23
2023-01-22T13:37:24.905Z,4.67
2023-01-22T13:40:11.440Z,5.53
2023-01-22T13:42:59.094Z,3.53
2023-01-22T13:45:46.142Z,4.43
2023-01-22T13:48:32.887Z,5.90
2023-01-22T13:51:21.625Z,4.87
2023-01-22T13:54:16.609Z,3.67
2023-01-22T13:57:03.166Z,7.00
2023-01-22T14:00:00.104Z,6.67
2023-01-22T14:02:47.237Z,7.60
2023-01-22T14:05:35.966Z,5.93
2023-01-22T14:08:22.091Z,9.00
2023-01-22T14:11:08.512Z,5.10
2023-01-22T14:13:54.903Z,4.30
2023-01-22T14:16:41.583Z,6.67
2023-01-22T14:19:28.989Z,5.43
2023-01-22T14:22:15.292Z,7.77
2023-01-22T14:25:01.524Z,4.70
2023-01-22T14:27:49.639Z,4.27
2023-01-22T14:30:36.343Z,4.87
2023-01-22T14:33:26.409Z,4.97
2023-01-22T14:36:12.924Z,5.20
2023-01-22T14:38:59.276Z,6.40
2023-01-22T14:41:45.759Z,6.47
2023-01-22T14:44:32.522Z,4.73
2023-01-22T14:47:18.828Z,6.73
2023-01-22T14:50:06.943Z,5.40
2023-01-22T14:52:54.144Z,6.30
2023-01-22T14:55:42.520Z,5.67
2023-01-22T14:58:29.040Z,5.17
2023-01-22T15:01:20.855Z,5.60
2023-01-22T15:04:07.505Z,5.30
2023-01-22T15:06:53.868Z,7.20
2023-01-22T15:09:40.595Z,6.33
2023-01-22T15:12:27.308Z,4.10
2023-01-22T15:15:22.884Z,5.03
2023-01-22T15:18:09.951Z,4.13
2023-01-22T15:20:56.247Z,6.20
2023-01-22T15:23:42.495Z,6.43
2023-01-22T15:26:33.341Z,11.70
2023-01-22T15:29:19.645Z,8.47
2023-01-22T15:32:06.223Z,7.77
2023-01-22T15:34:52.490Z,7.00
2023-01-22T15:37:39.063Z,8.50
2023-01-22T15:40:25.326Z,20.87
2023-01-22T15:43:11.727Z,11.17
2023-01-22T15:45:58.038Z,20.77
2023-01-22T15:48:44.584Z,14.07
2023-01-22T15:51:31.707Z,11.40
2023-01-22T15:54:18.363Z,9.00
2023-01-22T15:57:04.655Z,9.73
2023-01-22T15:59:51.500Z,6.17
2023-01-22T16:02:37.910Z,8.93
2023-01-22T16:05:24.286Z,8.30
2023-01-22T16:08:10.762Z,9.30
2023-01-22T16:10:56.950Z,11.33
2023-01-22T16:13:43.932Z,13.33
2023-01-22T16:16:33.094Z,16.37
2023-01-22T16:19:19.618Z,26.83
2023-01-22T16:22:05.907Z,18.47
2023-01-22T16:24:52.191Z,17.97
2023-01-22T16:27:38.958Z,11.80
2023-01-22T16:30:25.660Z,13.70
2023-01-22T16:33:23.454Z,13.67
2023-01-22T16:36:16.566Z,12.40
2023-01-22T16:39:04.016Z,9.13
2023-01-22T16:41:51.807Z,21.77
2023-01-22T16:44:38.299Z,18.03
2023-01-22T16:47:24.718Z,8.13
2023-01-22T16:50:11.468Z,8.83
2023-01-22T16:52:58.086Z,9.57
2023-01-22T16:55:44.552Z,8.70
2023-01-22T16:58:31.186Z,11.03
2023-01-22T17:01:17.733Z,19.13
2023-01-22T17:04:04.271Z,9.90
2023-01-22T17:06:53.085Z,9.37
2023-01-22T17:09:39.760Z,16.57
2023-01-22T17:12:26.482Z,14.20
2023-01-22T17:15:13.102Z,13.03
2023-01-22T17:17:59.946Z,8.10
2023-01-22T17:21:01.224Z,12.50
2023-01-22T17:23:48.209Z,16.43
2023-01-22T17:26:34.497Z,21.50
2023-01-22T17:29:21.644Z,13.80
2023-01-22T17:32:08.319Z,13.43
2023-01-22T17:34:54.683Z,10.40
2023-01-22T17:37:41.854Z,14.30
2023-01-22T17:40:29.309Z,13.73
2023-01-22T17:43:15.667Z,7.93
2023-01-22T17:46:02.364Z,7.20
2023-01-22T17:48:50.900Z,8.47
2023-01-22T17:51:37.227Z,7.73
2023-01-22T17:54:23.574Z,6.63
2023-01-22T17:57:10.742Z,8.53
2023-01-22T17:59:57.326Z,8.03
2023-01-22T18:02:43.779Z,8.50
2023-01-22T18:05:32.758Z,6.00
2023-01-22T18:08:20.630Z,6.87
2023-01-22T18:11:12.056Z,7.60
2023-01-22T18:14:00.816Z,7.77
2023-01-22T18:16:47.625Z,7.20
2023-01-22T18:19:33.874Z,7.10
2023-01-22T18:22:20.578Z,7.10
2023-01-22T18:25:06.835Z,6.63
2023-01-22T18:27:53.258Z,6.30
2023-01-22T18:30:39.816Z,7.83
2023-01-22T18:33:26.310Z,8.33
2023-01-22T18:36:15.469Z,8.17
2023-01-22T18:39:08.744Z,8.93
2023-01-22T18:41:54.949Z,10.30
2023-01-22T18:44:41.215Z,6.03
2023-01-22T18:47:27.677Z,6.73
2023-01-22T18:50:16.620Z,8.00
2023-01-22T18:53:03.974Z,7.77
2023-01-22T18:55:50.673Z,6.73
2023-01-22T18:58:38.581Z,8.13
2023-01-22T19:01:31.089Z,8.33
2023-01-22T19:04:21.599Z,8.77
2023-01-22T19:07:08.251Z,9.40
2023-01-22T19:09:54.514Z,7.27
2023-01-22T19:12:40.801Z,10.33
2023-01-22T19:15:28.100Z,6.53
2023-01-22T19:18:14.365Z,7.40
2023-01-22T19:21:10.602Z,9.10
2023-01-22T19:23:58.992Z,6.73
2023-01-22T19:26:46.774Z,8.40
2023-01-22T19:29:33.556Z,9.63
2023-01-22T19:32:27.483Z,6.80
2023-01-22T19:35:14.327Z,8.17
2023-01-22T19:38:00.786Z,7.47
2023-01-22T19:40:47.343Z,7.40
2023-01-22T19:43:33.833Z,8.53
2023-01-22T19:46:20.129Z,10.53
2023-01-22T19:49:08.344Z,6.83
2023-01-22T19:51:54.533Z,5.23
2023-01-22T19:54:47.214Z,8.63
2023-01-22T19:57:33.851Z,16.40
2023-01-22T20:00:20.523Z,10.33
2023-01-22T20:03:09.267Z,12.20
2023-01-22T20:05:55.475Z,22.87
2023-01-22T20:08:42.657Z,14.13
2023-01-22T20:11:29.231Z,8.27
2023-01-22T20:14:15.832Z,13.03
2023-01-22T20:17:02.850Z,8.23
2023-01-22T20:19:49.079Z,8.63
2023-01-22T20:22:35.303Z,12.37
2023-01-22T20:25:22.441Z,12.67
2023-01-22T20:28:10.776Z,12.30
2023-01-22T20:30:59.664Z,15.00
2023-01-22T20:33:46.315Z,10.23
2023-01-22T20:36:32.564Z,12.63
2023-01-22T20:39:19.652Z,8.53
2023-01-22T20:42:06.337Z,11.57
2023-01-22T20:44:52.806Z,12.13
2023-01-22T20:47:39.415Z,11.33
2023-01-22T20:50:25.748Z,13.23
2023-01-22T20:53:11.978Z,8.80
2023-01-22T20:55:59.665Z,10.20
2023-01-22T20:58:46.778Z,8.73
2023-01-22T21:01:33.976Z,9.67
2023-01-22T21:04:20.982Z,8.93
2023-01-22T21:07:07.608Z,5.73
2023-01-22T21:09:53.856Z,7.30
2023-01-22T21:12:42.955Z,5.20
2023-01-22T21:15:29.574Z,10.60
2023-01-22T21:18:15.691Z,6.53
2023-01-22T21:21:04.932Z,6.07
2023-01-22T21:23:54.116Z,6.57
2023-01-22T21:26:40.686Z,13.83
2023-01-22T21:29:27.244Z,7.93
2023-01-22T21:32:15.264Z,6.60
2023-01-22T21:35:02.146Z,8.37
2023-01-22T21:37:48.416Z,9.87
2023-01-22T21:40:34.663Z,8.30
2023-01-22T21:43:44.157Z,10.10
2023-01-22T21:46:38.260Z,9.47
2023-01-22T21:49:24.838Z,9.17
2023-01-22T21:52:11.259Z,7.83
2023-01-22T21:54:58.398Z,7.43
2023-01-22T21:57:44.836Z,9.23
2023-01-22T22:00:31.989Z,9.43
2023-01-22T22:03:18.554Z,13.10
2023-01-22T22:06:05.246Z,8.47
2023-01-22T22:08:51.785Z,10.67
2023-01-22T22:11:38.217Z,10.23
2023-01-22T22:14:25.563Z,10.07
2023-01-22T22:17:11.965Z,9.23
2023-01-22T22:19:58.269Z,8.93
2023-01-22T22:22:45.855Z,8.73
2023-01-22T22:25:33.328Z,11.57
2023-01-22T22:28:19.457Z,6.93
2023-01-22T22:31:12.502Z,9.83
2023-01-22T22:33:59.140Z,9.97
2023-01-22T22:36:45.320Z,9.43
2023-01-22T22:39:32.306Z,11.03
2023-01-22T22:42:18.799Z,10.57
2023-01-22T22:45:05.595Z,9.03
2023-01-22T22:47:51.671Z,9.53
2023-01-22T22:50:40.945Z,10.67
2023-01-22T22:53:27.475Z,12.80
2023-01-22T22:56:14.599Z,8.93
2023-01-22T22:59:01.292Z,9.90
2023-01-22T23:01:48.933Z,11.97
2023-01-22T23:04:35.921Z,9.80
2023-01-22T23:07:22.434Z,9.20
2023-01-22T23:10:28.730Z,9.97
2023-01-22T23:13:15.145Z,7.17
2023-01-22T23:16:12.756Z,7.83
2023-01-22T23:19:02.294Z,10.53
2023-01-22T23:21:53.663Z,12.03
2023-01-22T23:24:40.011Z,8.87
2023-01-22T23:27:26.256Z,10.37
2023-01-22T23:30:13.321Z,9.30
2023-01-22T23:32:59.411Z,10.37
2023-01-22T23:35:45.810Z,10.43
2023-01-22T23:38:32.030Z,9.80
2023-01-22T23:41:19.662Z,11.10
2023-01-22T23:44:07.188Z,8.93
2023-01-22T23:46:53.535Z,7.60
2023-01-22T23:49:39.658Z,8.83
2023-01-22T23:52:26.028Z,10.37
2023-01-22T23:55:12.959Z,9.47
2023-01-22T23:57:59.850Z,10.83
